ADDS METAR Data INFO
IDs: Format: Raw Decoded Include TAF

Data at: 0718 UTC 19 Oct 2017

KCDR 190653Z AUTO 22014KT 10SM CLR 15/M02 A2999 RMK AO2 PK WND 20032/0618 SLP142 T01501017 402170028
KCDR 190553Z AUTO 18024G35KT 10SM CLR 16/M02 A2998 RMK AO2 PK WND 18036/0507 SLP140 T01611017 10167 20122 58008
KCDR 190453Z AUTO 18028G34KT 10SM CLR 16/M02 A2999 RMK AO2 PK WND 19034/0449 SLP145 T01561022
KCDR 190353Z AUTO 18016G23KT 10SM CLR 16/M03 A3000 RMK AO2 PK WND 17027/0300 SLP150 T01561028
KCDR 190253Z AUTO 17020KT 10SM CLR 17/M03 A3001 RMK AO2 SLP157 T01671028 55006
KCDR 190153Z AUTO 16013KT 10SM CLR 16/M02 A3001 RMK AO2 SLP167 T01561022
KCDR 190053Z AUTO 16009KT 10SM CLR 14/M02 A3001 RMK AO2 SLP171 T01391017
KCDR 182353Z AUTO 14009KT 10SM CLR 16/M02 A3003 RMK AO2 SLP170 T01611017 10217 20161 56007
KCDR 182253Z AUTO 16011KT 10SM CLR 21/M03 A3004 RMK AO2 WSHFT 2229 SLP167 T02111033
KCDR 182249Z AUTO 17011KT 10SM CLR 21/M03 A3004 RMK AO2 WSHFT 2229
KCDR 182153Z AUTO 06004KT 10SM CLR 21/M03 A3005 RMK AO2 SLP172 T02111028
KCDR 182053Z AUTO 01005KT 10SM CLR 21/M03 A3006 RMK AO2 SLP173 T02061033 58016
KCDR 181953Z AUTO 07007KT 10SM CLR 20/M03 A3008 RMK AO2 SLP174 T02001033
KCDR 181853Z AUTO 06007KT 10SM CLR 19/M03 A3010 RMK AO2 SLP185 T01891033
KCDR 181753Z AUTO 05010KT 10SM CLR 18/M04 A3011 RMK AO2 SLP194 T01781039 10183 20028 50014
KCDR 181653Z AUTO 05008KT 10SM CLR 17/M03 A3012 RMK AO2 SLP200 T01721033
KCDR 181553Z AUTO 04014G20KT 10SM CLR 17/M04 A3011 RMK AO2 SLP196 T01671044
KCDR 181453Z AUTO 20003KT 10SM CLR 12/M05 A3007 RMK AO2 SLP186 T01171050 53042
KCDR 181353Z AUTO 36007KT 10SM CLR 04/M04 A3002 RMK AO2 PRESRR SLP180 T00391044
KCDR 181253Z AUTO 16005KT 10SM CLR 04/M05 A2994 RMK AO2 SLP150 T00441050
KCDR 181153Z AUTO 22006KT 10SM CLR 07/M06 A2993 RMK AO2 SLP131 T00671056 10150 20039 51031
KCDR 181053Z AUTO 24008KT 10SM CLR 07/M06 A2991 RMK AO2 SLP116 T00721056
KCDR 180953Z AUTO 18004KT 10SM CLR 06/M06 A2988 RMK AO2 SLP107 T00611056
KCDR 180853Z AUTO 24007KT 10SM CLR 10/M07 A2983 RMK AO2 SLP087 T01001067 56007
KCDR 180753Z AUTO 24011KT 10SM CLR 14/M08 A2983 RMK AO2 SLP083 T01441078
KCDR 180653Z AUTO 24008KT 10SM CLR 11/M06 A2983 RMK AO2 SLP090 T01061061 402671017
KCDR 180553Z AUTO 23010KT 10SM CLR 09/M05 A2985 RMK AO2 SLP101 T00941050 10206 20061 58010
KCDR 180453Z AUTO 24008KT 10SM CLR 07/M05 A2988 RMK AO2 SLP114 T00671050
KCDR 180353Z AUTO 25007KT 10SM CLR 07/M06 A2988 RMK AO2 SLP121 T00721056
KCDR 180253Z AUTO 25009KT 10SM CLR 09/M06 A2989 RMK AO2 SLP130 T00941056 58004
KCDR 180153Z AUTO 25009KT 10SM CLR 11/M06 A2989 RMK AO2 SLP139 T01061056
KCDR 180053Z AUTO 23007KT 10SM CLR 12/M07 A2990 RMK AO2 SLP141 T01171072
KCDR 172353Z AUTO 26007KT 10SM CLR 21/M08 A2990 RMK AO2 SLP130 T02061078 10267 20194 56010
KCDR 172253Z AUTO 26008KT 10SM CLR 26/M10 A2990 RMK AO2 SLP124 T02561100
KCDR 172153Z AUTO 22007KT 10SM CLR 26/M10 A2991 RMK AO2 SLP128 T02611100
KCDR 172053Z AUTO 21009KT 10SM CLR 26/M09 A2993 RMK AO2 SLP133 T02561089 56038
KCDR 171953Z AUTO 23007KT 10SM CLR 24/M08 A2997 RMK AO2 SLP147 T02441083